Time;durP1;ratioP1;P1;durP2;ratioP2;P2;SDS_P1;SDS_P2;PMS_P1;PMS_P2;Temp;Humidity;BMP_temperature;BMP_pressure;BME280_temperature;BME280_humidity;BME280_pressure;Samples;Min_cycle;Max_cycle;Signal;HPM_P1;HPM_P2
2023/07/01 00:00:05;;;;;;;;;;;;;;;29.69;36.95;94019.03;5024002;28;7148;-62
2023/07/01 00:02:36;;;;;;;;;;;;;;;29.72;36.77;94020.72;5066952;28;7068;-62
2023/07/01 00:05:13;;;;;;;;;;;;;;;29.72;37.17;94020.72;5049107;28;7076;-62
2023/07/01 00:07:49;;;;;;;;;;;;;;;29.68;37.68;94015.53;5053112;28;7076;-62
2023/07/01 00:10:15;;;;;;;;;;;;;;;29.69;37.77;94010.72;5052231;28;7266;-62
2023/07/01 00:12:40;;;;;;;;;;;;;;;29.67;36.85;94004.97;5051728;28;7151;-62
2023/07/01 00:15:10;;;;;;;;;;;;;;;29.65;37.43;94004.78;5046489;28;9137;-62
2023/07/01 00:17:39;;;;;;;;;;;;;;;29.65;37.17;94004.78;5046430;28;7316;-62
2023/07/01 00:20:08;;;;;;;;;;;;;;;29.62;37.29;94000.34;5046940;28;7273;-62
2023/07/01 00:22:34;;;;;;;;;;;;;;;29.62;36.89;94005.91;5022459;28;6960;-62
2023/07/01 00:25:19;;;;;;;;;;;;;;;29.64;37.55;94008.88;5046065;28;7255;-62
2023/07/01 00:28:03;;;;;;;;;;;;;;;29.59;37.42;94002.19;5027269;28;8770;-62
2023/07/01 00:30:33;;;;;;;;;;;;;;;29.60;37.56;94006.44;5026246;28;7029;-62
2023/07/01 00:33:01;;;;;;;;;;;;;;;29.61;37.23;94007.19;5063598;28;8690;-62
2023/07/01 00:35:29;;;;;;;;;;;;;;;29.58;37.90;94002.75;5062154;28;7235;-62
2023/07/01 00:38:00;;;;;;;;;;;;;;;29.59;37.44;94004.22;5025613;28;7496;-62
2023/07/01 00:40:28;;;;;;;;;;;;;;;29.57;37.25;94006.78;5026463;28;7768;-62
2023/07/01 00:43:45;;;;;;;;;;;;;;;29.57;36.75;93998.47;5052835;28;6981;-62
2023/07/01 00:46:58;;;;;;;;;;;;;;;29.56;37.10;93999.75;5064314;28;6859;-62
2023/07/01 00:49:37;;;;;;;;;;;;;;;29.54;37.56;93999.56;5067558;28;8777;-61
2023/07/01 00:52:12;;;;;;;;;;;;;;;29.53;37.00;93998.84;5029632;28;7141;-62
2023/07/01 00:54:50;;;;;;;;;;;;;;;29.53;37.15;93993.28;5052642;28;9395;-62
2023/07/01 00:57:28;;;;;;;;;;;;;;;29.53;37.05;93993.28;5050092;28;7230;-62
2023/07/01 01:00:10;;;;;;;;;;;;;;;29.51;36.64;94001.41;5033125;28;8215;-62
2023/07/01 01:03:29;;;;;;;;;;;;;;;29.52;37.81;93996.59;5051504;28;7264;-62
2023/07/01 01:06:10;;;;;;;;;;;;;;;29.50;37.03;94001.94;5044980;28;7615;-62
2023/07/01 01:08:49;;;;;;;;;;;;;;;29.51;37.11;93995.88;5049744;28;7246;-62
2023/07/01 01:11:26;;;;;;;;;;;;;;;29.51;37.10;94000.66;5028989;28;7184;-62
2023/07/01 01:14:05;;;;;;;;;;;;;;;29.50;37.57;93999.91;5025791;28;7262;-62
2023/07/01 01:16:34;;;;;;;;;;;;;;;29.47;36.86;93994.75;5046051;28;7043;-62
2023/07/01 01:19:06;;;;;;;;;;;;;;;29.47;37.57;94000.28;5045935;28;6995;-62
2023/07/01 01:21:35;;;;;;;;;;;;;;;29.46;37.75;93998.78;5047022;28;7273;-62
2023/07/01 01:24:07;;;;;;;;;;;;;;;29.46;37.17;93996.00;5034925;28;7206;-62
2023/07/01 01:26:40;;;;;;;;;;;;;;;29.46;37.86;93993.25;5022086;28;7254;-62
2023/07/01 01:29:36;;;;;;;;;;;;;;;29.46;37.41;93993.25;5026105;28;9015;-62
2023/07/01 01:32:30;;;;;;;;;;;;;;;29.45;37.47;93991.78;5065943;28;9375;-62
2023/07/01 01:35:17;;;;;;;;;;;;;;;29.44;37.04;93984.72;5046852;28;6984;-62
2023/07/01 01:38:34;;;;;;;;;;;;;;;29.44;37.39;93979.19;5026838;28;7991;-62
2023/07/01 01:41:39;;;;;;;;;;;;;;;29.45;36.82;93975.16;4971038;28;8235;-62
2023/07/01 01:44:22;;;;;;;;;;;;;;;29.41;37.26;93966.41;4988769;28;7265;-62
2023/07/01 01:46:48;;;;;;;;;;;;;;;29.42;37.66;93976.97;4970582;28;7593;-62
2023/07/01 01:50:03;;;;;;;;;;;;;;;29.41;37.19;93963.66;4974028;28;8244;-62
2023/07/01 01:52:34;;;;;;;;;;;;;;;29.42;37.55;93970.69;4973481;28;9377;-62
2023/07/01 01:55:09;;;;;;;;;;;;;;;29.39;37.57;93963.47;4984067;28;7234;-62
2023/07/01 01:57:47;;;;;;;;;;;;;;;29.41;37.17;93963.66;4989419;28;6994;-62
2023/07/01 02:01:04;;;;;;;;;;;;;;;29.41;37.21;93963.66;4987673;28;7550;-62
2023/07/01 02:03:44;;;;;;;;;;;;;;;29.37;36.84;93958.47;4971924;28;7182;-62
2023/07/01 02:06:21;;;;;;;;;;;;;;;29.37;36.74;93961.25;4973155;28;7544;-62
2023/07/01 02:09:05;;;;;;;;;;;;;;;29.38;37.04;93959.97;4974312;28;7246;-62
2023/07/01 02:11:59;;;;;;;;;;;;;;;29.39;37.39;93963.47;4989032;28;7053;-62
2023/07/01 02:18:21;;;;;;;;;;;;;;;29.37;36.38;93952.19;4971822;28;7280;-62
2023/07/01 02:20:48;;;;;;;;;;;;;;;29.38;37.31;93953.69;4987061;28;9071;-62
2023/07/01 02:23:33;;;;;;;;;;;;;;;29.37;37.27;93954.94;4974448;28;7164;-62
2023/07/01 02:26:09;;;;;;;;;;;;;;;29.37;36.83;93952.19;4969230;28;7418;-62
2023/07/01 02:28:44;;;;;;;;;;;;;;;29.35;37.24;93949.97;4972832;28;7066;-61
2023/07/01 02:31:09;;;;;;;;;;;;;;;29.34;37.00;93953.28;4989598;28;7234;-62
2023/07/01 02:33:44;;;;;;;;;;;;;;;29.34;37.03;93947.75;4988086;28;6982;-62
2023/07/01 02:36:11;;;;;;;;;;;;;;;29.35;36.97;93954.75;4989237;28;8749;-62
2023/07/01 02:39:01;;;;;;;;;;;;;;;29.35;37.12;93949.22;4966334;28;7248;-62
2023/07/01 02:41:57;;;;;;;;;;;;;;;29.35;37.60;93954.75;5004364;28;7966;-62
2023/07/01 02:44:32;;;;;;;;;;;;;;;29.32;37.17;93944.78;4991756;28;7597;-62
2023/07/01 02:47:08;;;;;;;;;;;;;;;29.34;37.44;93953.28;4966316;28;7419;-62
2023/07/01 02:49:48;;;;;;;;;;;;;;;29.32;37.37;93948.28;4991410;28;9198;-62
2023/07/01 02:52:17;;;;;;;;;;;;;;;29.31;37.00;93944.03;4971429;28;7115;-62
2023/07/01 02:54:44;;;;;;;;;;;;;;;29.33;36.91;93949.03;5050524;28;9123;-62
2023/07/01 02:57:13;;;;;;;;;;;;;;;29.30;36.85;93944.56;5029307;28;9087;-62
2023/07/01 03:00:10;;;;;;;;;;;;;;;29.27;37.33;93935.34;5051021;28;7243;-62
2023/07/01 03:02:45;;;;;;;;;;;;;;;29.29;37.60;93946.63;5051915;28;7369;-62
2023/07/01 03:05:23;;;;;;;;;;;;;;;29.28;36.67;93944.38;5025595;28;7466;-62
2023/07/01 03:07:49;;;;;;;;;;;;;;;29.28;37.36;93941.59;5048779;28;6995;-62
2023/07/01 03:10:18;;;;;;;;;;;;;;;29.27;37.59;93943.66;5064916;28;7322;-62
2023/07/01 03:12:47;;;;;;;;;;;;;;;29.26;37.54;93946.94;5023551;28;8865;-62
2023/07/01 03:15:14;;;;;;;;;;;;;;;29.28;36.95;93947.88;5025013;28;7222;-62
2023/07/01 03:17:47;;;;;;;;;;;;;;;29.25;36.98;93945.47;5047030;28;8510;-62
2023/07/01 03:20:22;;;;;;;;;;;;;;;29.26;37.32;93944.19;5030489;28;9062;-62
2023/07/01 03:23:07;;;;;;;;;;;;;;;29.24;36.86;93943.97;5052338;28;7255;-62
2023/07/01 03:25:35;;;;;;;;;;;;;;;29.26;36.74;93946.94;5031646;28;7426;-62
2023/07/01 03:28:09;;;;;;;;;;;;;;;29.25;37.68;93942.72;5027814;28;9563;-62
2023/07/01 03:30:35;;;;;;;;;;;;;;;29.26;37.34;93941.41;5030288;28;7344;-61
2023/07/01 03:33:02;;;;;;;;;;;;;;;29.26;37.99;93938.63;5050293;28;6943;-62
2023/07/01 03:35:35;;;;;;;;;;;;;;;29.27;37.05;93948.44;5033494;28;9690;-62
2023/07/01 03:38:03;;;;;;;;;;;;;;;29.25;37.11;93943.47;5025789;28;7116;-62
2023/07/01 03:40:33;;;;;;;;;;;;;;;29.23;37.93;93948.06;5029234;28;9209;-62
2023/07/01 03:43:04;;;;;;;;;;;;;;;29.20;37.18;93936.03;5051780;28;7281;-62
2023/07/01 03:45:47;;;;;;;;;;;;;;;29.25;37.38;93945.47;5016676;28;7212;-62
2023/07/01 03:48:14;;;;;;;;;;;;;;;29.25;37.42;93937.91;5030284;28;9139;-62
2023/07/01 03:50:46;;;;;;;;;;;;;;;29.26;37.18;93958.03;5046864;28;7550;-62
2023/07/01 03:53:13;;;;;;;;;;;;;;;29.27;37.26;93942.91;5030589;28;9446;-62
2023/07/01 03:55:45;;;;;;;;;;;;;;;29.26;36.89;93944.94;5025619;28;7363;-62
2023/07/01 03:58:21;;;;;;;;;;;;;;;29.26;37.17;93941.41;5052250;28;7024;-62
2023/07/01 04:00:57;;;;;;;;;;;;;;;29.25;36.87;93946.22;5047224;28;6970;-62
2023/07/01 04:03:23;;;;;;;;;;;;;;;29.25;37.92;93943.47;5031496;28;8010;-62
2023/07/01 04:05:59;;;;;;;;;;;;;;;29.24;37.11;93939.19;5048347;28;6998;-62
2023/07/01 04:08:32;;;;;;;;;;;;;;;29.25;37.32;93935.16;5051982;28;9129;-62
2023/07/01 04:11:00;;;;;;;;;;;;;;;29.24;37.21;93935.66;5050551;28;7043;-62
2023/07/01 04:13:54;;;;;;;;;;;;;;;29.24;36.75;93936.41;5066184;28;9062;-62
2023/07/01 04:16:34;;;;;;;;;;;;;;;29.24;37.16;93930.88;5047112;28;8759;-62
2023/07/01 04:19:50;;;;;;;;;;;;;;;29.25;36.76;93934.41;5065678;28;8387;-62
2023/07/01 04:22:17;;;;;;;;;;;;;;;29.22;37.39;93927.16;5050675;28;6943;-62
2023/07/01 04:24:57;;;;;;;;;;;;;;;29.21;37.52;93917.41;5064299;28;8889;-62
2023/07/01 04:27:33;;;;;;;;;;;;;;;29.23;37.41;93920.34;5048998;28;7121;-62
2023/07/01 04:30:18;;;;;;;;;;;;;;;29.23;36.66;93925.91;5049296;28;8952;-62
2023/07/01 04:32:55;;;;;;;;;;;;;;;29.22;36.72;93919.59;5029007;28;9093;-62
2023/07/01 04:35:23;;;;;;;;;;;;;;;29.23;36.46;93923.13;5053776;28;7324;-62
2023/07/01 04:38:06;;;;;;;;;;;;;;;29.21;37.04;93923.66;5067256;28;9118;-62
2023/07/01 04:40:32;;;;;;;;;;;;;;;29.21;37.72;93923.66;5052320;28;8230;-62
2023/07/01 04:43:24;;;;;;;;;;;;;;;29.22;37.20;93921.63;5049940;28;8223;-62
2023/07/01 04:46:25;;;;;;;;;;;;;;;29.21;37.12;93923.66;5048636;28;7244;-62
2023/07/01 04:48:54;;;;;;;;;;;;;;;29.20;37.43;93924.22;5031619;28;7673;-62
2023/07/01 04:51:29;;;;;;;;;;;;;;;29.18;37.58;93927.53;5047986;28;7056;-62
2023/07/01 04:53:55;;;;;;;;;;;;;;;29.13;37.00;93920.09;5024066;28;8765;-62
2023/07/01 04:56:23;;;;;;;;;;;;;;;29.10;37.06;93915.66;5046501;28;7160;-62
2023/07/01 04:58:51;;;;;;;;;;;;;;;29.09;37.40;93928.75;5047706;28;7348;-62
2023/07/01 05:01:45;;;;;;;;;;;;;;;29.08;36.87;93932.03;5051350;28;7411;-62
2023/07/01 05:04:11;;;;;;;;;;;;;;;29.08;37.40;93934.81;4973201;28;7218;-61
2023/07/01 05:06:51;;;;;;;;;;;;;;;29.06;37.29;93929.81;4973880;28;7491;-62
2023/07/01 05:09:49;;;;;;;;;;;;;;;29.04;37.35;93935.16;4988821;28;9544;-62
2023/07/01 05:12:15;;;;;;;;;;;;;;;29.04;36.92;93932.41;4945020;28;9575;-62
2023/07/01 05:14:43;;;;;;;;;;;;;;;29.04;37.82;93929.63;4939013;28;7233;-61
2023/07/01 05:17:13;;;;;;;;;;;;;;;29.03;36.91;93932.94;4939011;28;7274;-62
2023/07/01 05:19:39;;;;;;;;;;;;;;;29.01;36.86;93930.72;4922979;29;7237;-62
2023/07/01 05:22:05;;;;;;;;;;;;;;;29.01;37.74;93927.22;4923073;28;7669;-62
2023/07/01 05:24:34;;;;;;;;;;;;;;;29.00;37.13;93929.25;4939210;28;9126;-62
2023/07/01 05:27:05;;;;;;;;;;;;;;;29.04;37.15;93937.94;4944420;28;7206;-62
2023/07/01 05:29:40;;;;;;;;;;;;;;;29.03;37.12;93939.25;4926674;28;9181;-62
2023/07/01 05:32:23;;;;;;;;;;;;;;;29.02;37.30;93929.44;4947392;28;8401;-62
2023/07/01 05:35:07;;;;;;;;;;;;;;;29.02;37.16;93940.50;4930918;29;8776;-62
2023/07/01 05:37:52;;;;;;;;;;;;;;;29.02;37.21;93934.22;4943027;29;7264;-62
2023/07/01 05:40:18;;;;;;;;;;;;;;;29.01;37.13;93933.47;4953751;28;7399;-62
2023/07/01 05:43:10;;;;;;;;;;;;;;;29.01;37.67;93930.72;5006434;28;8908;-61
2023/07/01 05:45:46;;;;;;;;;;;;;;;29.00;36.87;93926.47;5008020;28;7243;-62
2023/07/01 05:48:15;;;;;;;;;;;;;;;28.98;36.80;93929.03;5014759;28;7191;-62
2023/07/01 05:50:49;;;;;;;;;;;;;;;29.00;37.54;93934.03;5046134;28;6994;-63
2023/07/01 05:53:19;;;;;;;;;;;;;;;29.00;37.19;93925.72;5048926;28;7062;-63
2023/07/01 05:56:15;;;;;;;;;;;;;;;28.99;36.83;93929.78;5050061;28;7238;-62
2023/07/01 05:58:41;;;;;;;;;;;;;;;28.97;36.92;93927.56;5048346;28;8801;-63
2023/07/01 06:01:13;;;;;;;;;;;;;;;28.97;37.40;93929.59;5049578;28;9031;-62
2023/07/01 06:04:09;;;;;;;;;;;;;;;28.97;36.62;93933.09;5050726;28;7086;-63
2023/07/01 06:07:04;;;;;;;;;;;;;;;28.96;37.61;93926.09;5032192;28;9079;-62
2023/07/01 06:09:47;;;;;;;;;;;;;;;28.96;37.63;93928.09;4973173;28;7330;-63
2023/07/01 06:12:21;;;;;;;;;;;;;;;28.98;37.55;93928.31;4986740;28;7322;-63
2023/07/01 06:15:38;;;;;;;;;;;;;;;28.98;37.62;93926.28;4988994;28;7257;-63
2023/07/01 06:18:21;;;;;;;;;;;;;;;28.97;37.45;93927.56;4976606;28;8695;-63
2023/07/01 06:21:16;;;;;;;;;;;;;;;28.98;37.10;93929.03;4971413;28;7218;-63
2023/07/01 06:23:55;;;;;;;;;;;;;;;29.00;37.69;93934.03;4992760;28;7491;-63
2023/07/01 06:26:32;;;;;;;;;;;;;;;28.97;37.71;93935.84;4972927;28;7016;-63
2023/07/01 06:29:11;;;;;;;;;;;;;;;29.01;37.62;93933.47;4991836;28;7025;-63
2023/07/01 06:31:38;;;;;;;;;;;;;;;28.98;37.71;93926.28;4989493;28;8793;-63
2023/07/01 06:34:23;;;;;;;;;;;;;;;28.99;38.01;93933.28;4976170;28;9052;-63
2023/07/01 06:37:37;;;;;;;;;;;;;;;29.00;37.91;93925.72;4975962;28;7282;-63
2023/07/01 06:40:05;;;;;;;;;;;;;;;28.96;37.26;93920.53;4990261;28;9419;-63
2023/07/01 06:42:50;;;;;;;;;;;;;;;29.00;37.41;93920.19;4985486;28;7241;-62
2023/07/01 06:45:28;;;;;;;;;;;;;;;28.99;37.14;93927.03;4983986;28;7244;-62
2023/07/01 06:48:01;;;;;;;;;;;;;;;29.00;37.81;93923.72;5052114;28;7270;-62
2023/07/01 06:50:34;;;;;;;;;;;;;;;28.99;37.75;93919.44;5031610;28;7453;-62
2023/07/01 06:53:09;;;;;;;;;;;;;;;29.01;37.95;93916.88;5051012;28;7213;-62
2023/07/01 06:55:47;;;;;;;;;;;;;;;29.03;37.98;93914.31;5031246;28;7341;-62
2023/07/01 06:58:20;;;;;;;;;;;;;;;29.05;37.03;93916.53;5066079;28;8741;-62
2023/07/01 07:00:52;;;;;;;;;;;;;;;29.08;37.14;93915.44;5054561;28;9083;-63
2023/07/01 07:03:50;;;;;;;;;;;;;;;29.05;37.45;93914.50;5031646;28;7020;-63
2023/07/01 07:06:19;;;;;;;;;;;;;;;29.09;37.63;93923.22;4984073;28;7210;-62
2023/07/01 07:08:49;;;;;;;;;;;;;;;29.11;37.64;93919.88;4976920;28;8739;-62
2023/07/01 07:11:27;;;;;;;;;;;;;;;29.12;38.00;93920.63;4986123;28;9365;-62
2023/07/01 07:13:55;;;;;;;;;;;;;;;29.13;37.54;93919.34;4970223;28;8816;-62
2023/07/01 07:16:50;;;;;;;;;;;;;;;29.16;37.21;93921.03;4989590;28;6993;-62
2023/07/01 07:19:18;;;;;;;;;;;;;;;29.13;37.39;93920.09;4951753;28;8768;-62
2023/07/01 07:21:53;;;;;;;;;;;;;;;29.14;37.88;93924.34;4950176;28;7255;-63
2023/07/01 07:24:19;;;;;;;;;;;;;;;29.12;37.54;93926.16;4946820;28;9020;-62
2023/07/01 07:26:56;;;;;;;;;;;;;;;29.09;37.25;93919.69;4931360;28;7124;-62
2023/07/01 07:29:25;;;;;;;;;;;;;;;29.12;37.72;93937.25;4945696;28;7138;-62
2023/07/01 07:31:51;;;;;;;;;;;;;;;29.12;37.84;93923.41;4929638;28;9676;-61
2023/07/01 07:34:18;;;;;;;;;;;;;;;29.15;36.94;93925.06;4934916;28;9298;-62
2023/07/01 07:36:55;;;;;;;;;;;;;;;29.14;37.59;93934.69;4937813;28;7340;-62
2023/07/01 07:39:47;;;;;;;;;;;;;;;29.15;37.70;93930.59;4936117;28;9092;-62
2023/07/01 07:42:16;;;;;;;;;;;;;;;29.16;37.15;93923.78;4907122;29;9200;-62
2023/07/01 07:44:51;;;;;;;;;;;;;;;29.17;36.60;93922.53;4919990;29;7532;-62
2023/07/01 07:47:29;;;;;;;;;;;;;;;29.17;39.73;93920.50;4896801;29;7449;-61
2023/07/01 07:49:58;;;;;;;;;;;;;;;29.20;38.21;93915.91;4913263;29;7803;-62
2023/07/01 07:52:27;;;;;;;;;;;;;;;29.20;37.85;93915.91;4901778;29;7212;-62
2023/07/01 07:54:53;;;;;;;;;;;;;;;29.17;37.75;93911.47;4897892;29;6997;-62
2023/07/01 07:57:19;;;;;;;;;;;;;;;29.16;37.28;93915.47;4913040;29;7041;-62
2023/07/01 07:59:49;;;;;;;;;;;;;;;29.16;38.20;93905.19;4933610;28;7292;-62
2023/07/01 08:02:15;;;;;;;;;;;;;;;29.16;38.59;93907.19;4934111;28;6968;-62
2023/07/01 08:04:41;;;;;;;;;;;;;;;29.18;38.71;93907.41;4934614;28;7039;-62
2023/07/01 08:07:18;;;;;;;;;;;;;;;29.20;38.39;93899.28;4918501;29;8235;-62
2023/07/01 08:10:03;;;;;;;;;;;;;;;29.21;38.67;93895.97;4933802;28;6987;-62
2023/07/01 08:12:38;;;;;;;;;;;;;;;29.22;38.23;93893.94;4912654;29;9085;-62
2023/07/01 08:15:18;;;;;;;;;;;;;;;29.23;38.27;93893.38;4949264;28;7429;-62
2023/07/01 08:17:54;;;;;;;;;;;;;;;29.24;37.79;93899.66;4933605;29;9123;-62
2023/07/01 08:20:55;;;;;;;;;;;;;;;29.24;37.32;93894.13;5030074;28;9123;-62
2023/07/01 08:23:53;;;;;;;;;;;;;;;29.25;38.10;93890.09;4969517;28;7356;-62
2023/07/01 08:26:28;;;;;;;;;;;;;;;29.22;37.64;93882.84;4985675;28;7249;-62
2023/07/01 08:29:06;;;;;;;;;;;;;;;29.23;37.33;93893.38;4972997;28;7245;-62
2023/07/01 08:31:41;;;;;;;;;;;;;;;29.23;37.57;93884.34;4975820;28;7082;-62
2023/07/01 08:34:29;;;;;;;;;;;;;;;29.23;37.96;93881.56;4983985;28;7042;-62
2023/07/01 08:37:20;;;;;;;;;;;;;;;29.25;37.20;93885.28;4987540;28;6985;-62
2023/07/01 08:39:48;;;;;;;;;;;;;;;29.25;37.37;93879.75;4970385;28;7264;-62
2023/07/01 08:42:50;;;;;;;;;;;;;;;29.25;37.84;93881.78;4971259;28;7132;-62
2023/07/01 08:45:24;;;;;;;;;;;;;;;29.25;37.51;93879.75;4970941;28;8025;-62
2023/07/01 08:48:23;;;;;;;;;;;;;;;29.26;38.03;93874.94;4968874;28;7427;-62
2023/07/01 08:51:20;;;;;;;;;;;;;;;29.24;38.00;93863.66;4916426;29;8885;-62
2023/07/01 08:54:16;;;;;;;;;;;;;;;29.27;37.79;93870.88;4902834;29;7248;-62
2023/07/01 08:57:16;;;;;;;;;;;;;;;29.24;37.70;93867.16;4890203;29;7062;-62
2023/07/01 09:00:03;;;;;;;;;;;;;;;29.26;38.07;93866.63;4898251;29;9514;-62
2023/07/01 09:02:48;;;;;;;;;;;;;;;29.28;38.12;93859.25;4925890;29;7282;-62
2023/07/01 09:05:24;;;;;;;;;;;;;;;29.28;37.51;93862.00;4916505;29;9423;-62
2023/07/01 09:07:50;;;;;;;;;;;;;;;29.30;38.18;93861.47;4936113;28;7003;-62
2023/07/01 09:10:26;;;;;;;;;;;;;;;29.29;37.32;93862.75;4920980;29;6991;-62
2023/07/01 09:13:13;;;;;;;;;;;;;;;29.30;38.00;93858.69;4921625;29;7655;-62
2023/07/01 09:15:49;;;;;;;;;;;;;;;29.30;37.88;93853.16;4936925;28;7132;-62
2023/07/01 09:18:44;;;;;;;;;;;;;;;29.29;37.35;93846.88;4923088;29;7212;-62
2023/07/01 09:21:22;;;;;;;;;;;;;;;29.30;38.28;93848.34;4886413;29;6868;-62
2023/07/01 09:23:47;;;;;;;;;;;;;;;29.30;37.89;93859.44;4881168;29;8274;-62
2023/07/01 09:26:19;;;;;;;;;;;;;;;29.31;38.28;93852.63;4864557;29;7274;-63
2023/07/01 09:28:49;;;;;;;;;;;;;;;29.29;37.83;93848.91;4871249;29;7106;-62
2023/07/01 09:31:19;;;;;;;;;;;;;;;29.31;37.63;93849.09;4925799;29;8976;-63
2023/07/01 09:34:00;;;;;;;;;;;;;;;29.32;38.12;93850.59;4954795;28;9151;-63
2023/07/01 09:36:38;;;;;;;;;;;;;;;29.32;38.09;93847.81;4986249;28;7289;-63
2023/07/01 09:39:14;;;;;;;;;;;;;;;29.32;37.90;93842.28;4985720;28;9474;-62
2023/07/01 09:41:44;;;;;;;;;;;;;;;29.30;37.25;93842.81;4972888;28;9096;-62
2023/07/01 09:44:18;;;;;;;;;;;;;;;29.34;37.78;93848.03;4985791;28;7496;-62
2023/07/01 09:47:00;;;;;;;;;;;;;;;29.34;37.19;93836.94;4989820;28;9063;-62
2023/07/01 09:49:44;;;;;;;;;;;;;;;29.34;37.55;93831.41;4984645;28;9187;-62
2023/07/01 09:52:13;;;;;;;;;;;;;;;29.35;37.71;93832.84;4972569;28;8168;-62
2023/07/01 09:54:42;;;;;;;;;;;;;;;29.36;37.49;93840.63;4988010;28;9610;-62
2023/07/01 09:57:09;;;;;;;;;;;;;;;29.37;37.10;93830.28;5007758;28;7523;-62
2023/07/01 09:59:45;;;;;;;;;;;;;;;29.38;38.19;93837.31;5053544;28;9053;-62
2023/07/01 10:02:30;;;;;;;;;;;;;;;29.38;37.94;93820.69;5037684;28;7265;-62
2023/07/01 10:05:05;;;;;;;;;;;;;;;29.41;37.47;93827.88;5030926;28;7345;-62
2023/07/01 10:07:45;;;;;;;;;;;;;;;29.41;37.46;93827.88;5031990;28;9098;-62
2023/07/01 10:10:17;;;;;;;;;;;;;;;29.39;37.80;93824.94;5031349;28;7246;-62
2023/07/01 10:12:46;;;;;;;;;;;;;;;29.41;37.32;93820.31;5049287;28;7500;-62
2023/07/01 10:15:23;;;;;;;;;;;;;;;29.43;37.25;93825.31;5025717;28;9055;-62
2023/07/01 10:17:50;;;;;;;;;;;;;;;29.42;37.71;93821.06;5048600;28;7062;-62
2023/07/01 10:20:36;;;;;;;;;;;;;;;29.43;37.05;93823.28;5066396;28;7039;-62
2023/07/01 10:23:09;;;;;;;;;;;;;;;29.44;37.53;93812.94;5054037;28;9034;-62
2023/07/01 10:25:50;;;;;;;;;;;;;;;29.46;37.73;93815.91;5030066;28;7234;-62
2023/07/01 10:28:26;;;;;;;;;;;;;;;29.44;37.21;93818.47;5055317;28;8823;-62
2023/07/01 10:30:55;;;;;;;;;;;;;;;29.47;37.18;93817.41;5029541;28;7163;-62
2023/07/01 10:33:51;;;;;;;;;;;;;;;29.48;37.83;93807.78;5029442;28;7228;-62
2023/07/01 10:36:20;;;;;;;;;;;;;;;29.48;37.74;93802.97;5053529;28;8178;-62
2023/07/01 10:38:46;;;;;;;;;;;;;;;29.50;37.59;93805.19;5030504;28;7680;-62
2023/07/01 10:41:55;;;;;;;;;;;;;;;29.51;36.73;93809.47;5029435;28;7034;-62
2023/07/01 10:44:53;;;;;;;;;;;;;;;29.53;36.81;93804.84;5044617;28;7684;-62
2023/07/01 10:47:18;;;;;;;;;;;;;;;29.50;37.13;93794.09;5030790;28;8416;-62
2023/07/01 10:50:03;;;;;;;;;;;;;;;29.48;37.74;93786.34;5053126;28;8361;-62
2023/07/01 10:53:07;;;;;;;;;;;;;;;29.52;37.20;93791.53;5050787;28;7182;-62
2023/07/01 10:55:40;;;;;;;;;;;;;;;29.53;37.92;93785.44;5067947;28;9525;-62
2023/07/01 10:58:22;;;;;;;;;;;;;;;29.55;37.21;93790.44;5029467;28;7328;-62
2023/07/01 11:00:55;;;;;;;;;;;;;;;29.55;37.79;93790.44;5054607;28;7261;-62
2023/07/01 11:03:39;;;;;;;;;;;;;;;29.56;37.29;93781.56;5052394;28;7206;-62
2023/07/01 11:09:16;;;;;;;;;;;;;;;29.57;37.78;93779.53;5053699;28;7017;-62
2023/07/01 11:12:18;;;;;;;;;;;;;;;29.59;38.03;93774.19;5066150;28;7714;-62
2023/07/01 11:15:00;;;;;;;;;;;;;;;29.58;37.88;93769.94;4953359;28;7065;-62
2023/07/01 11:17:29;;;;;;;;;;;;;;;29.58;38.02;93756.81;4963226;28;7199;-62
2023/07/01 11:19:57;;;;;;;;;;;;;;;29.58;37.81;93756.81;4966178;28;9159;-62
2023/07/01 11:22:23;;;;;;;;;;;;;;;29.62;37.55;93751.63;4981399;28;9068;-62
2023/07/01 11:25:06;;;;;;;;;;;;;;;29.61;37.29;93758.47;4982241;28;7057;-62
2023/07/01 11:27:32;;;;;;;;;;;;;;;29.63;37.73;93746.84;4965059;28;7277;-62
2023/07/01 11:30:01;;;;;;;;;;;;;;;29.64;37.62;93756.63;4963761;28;7233;-62
2023/07/01 11:32:28;;;;;;;;;;;;;;;29.65;37.46;93764.41;4965248;28;6998;-62
2023/07/01 11:35:04;;;;;;;;;;;;;;;29.66;37.99;93754.81;4976508;28;7039;-62
2023/07/01 11:38:21;;;;;;;;;;;;;;;29.66;36.88;93743.72;4968227;28;7230;-62
2023/07/01 11:40:47;;;;;;;;;;;;;;;29.67;37.42;93741.66;4918773;29;7169;-62
2023/07/01 11:43:27;;;;;;;;;;;;;;;29.67;37.09;93745.19;4914075;29;9227;-62
2023/07/01 11:45:54;;;;;;;;;;;;;;;29.69;37.74;93744.63;4915051;29;9448;-62
2023/07/01 11:48:31;;;;;;;;;;;;;;;29.72;36.80;93737.97;4956715;28;7008;-62
2023/07/01 11:51:07;;;;;;;;;;;;;;;29.73;36.87;93733.91;4984619;28;6987;-62
2023/07/01 11:53:53;;;;;;;;;;;;;;;29.72;37.07;93735.22;5003892;28;8867;-62
2023/07/01 12:00:00;;;;;;;;;;;;;;;29.72;37.38;93724.13;5003795;28;8206;-62
2023/07/01 12:02:28;;;;;;;;;;;;;;;29.73;37.57;93726.31;4993987;28;7245;-62
2023/07/01 12:05:00;;;;;;;;;;;;;;;29.73;37.50;93723.56;4989503;28;7050;-62
2023/07/01 12:07:35;;;;;;;;;;;;;;;29.74;38.17;93727.09;4994030;28;7417;-62
2023/07/01 12:10:39;;;;;;;;;;;;;;;29.75;36.95;93725.81;4989468;28;9822;-62
2023/07/01 12:13:30;;;;;;;;;;;;;;;29.76;37.01;93722.47;5001735;28;9202;-62
2023/07/01 12:16:03;;;;;;;;;;;;;;;29.75;37.19;93723.06;5010951;28;9378;-62
2023/07/01 12:18:31;;;;;;;;;;;;;;;29.75;37.15;93711.97;5032376;28;9453;-62
2023/07/01 12:20:57;;;;;;;;;;;;;;;29.76;37.12;93718.97;5046230;28;7462;-62
2023/07/01 12:23:44;;;;;;;;;;;;;;;29.79;38.02;93713.06;5025981;28;8071;-62
2023/07/01 12:26:20;;;;;;;;;;;;;;;29.79;37.87;93715.09;5031561;28;6993;-62
2023/07/01 12:28:47;;;;;;;;;;;;;;;29.78;38.23;93713.59;5027136;28;8953;-62
2023/07/01 12:31:14;;;;;;;;;;;;;;;29.80;37.78;93724.88;5030151;28;7516;-62
2023/07/01 12:33:40;;;;;;;;;;;;;;;29.80;38.53;93706.22;5029615;28;7495;-62
2023/07/01 12:36:07;;;;;;;;;;;;;;;29.82;38.06;93713.25;5033979;28;6992;-62
2023/07/01 12:38:44;;;;;;;;;;;;;;;29.82;38.19;93707.72;5050855;28;7362;-62
2023/07/01 12:41:15;;;;;;;;;;;;;;;29.82;38.22;93708.44;5050815;28;7554;-62
2023/07/01 12:43:50;;;;;;;;;;;;;;;29.82;38.49;93711.19;5006073;28;1215540;-62
2023/07/01 12:46:33;;;;;;;;;;;;;;;29.83;37.81;93712.69;5050420;28;9079;-62
2023/07/01 12:49:13;;;;;;;;;;;;;;;29.84;37.85;93713.44;5026246;28;8739;-62
2023/07/01 12:51:44;;;;;;;;;;;;;;;29.83;37.34;93711.94;5067074;28;7297;-62
2023/07/01 12:54:12;;;;;;;;;;;;;;;29.85;38.00;93709.34;5032262;28;8776;-62
2023/07/01 12:57:15;;;;;;;;;;;;;;;29.85;37.56;93707.31;5049675;28;9038;-62
2023/07/01 13:00:31;;;;;;;;;;;;;;;29.85;37.80;93712.13;4987491;28;7532;-62
2023/07/01 13:03:07;;;;;;;;;;;;;;;29.85;37.92;93717.66;4969940;28;9333;-62
2023/07/01 13:06:19;;;;;;;;;;;;;;;29.89;37.35;93701.41;4954472;28;7097;-62
2023/07/01 13:09:17;;;;;;;;;;;;;;;29.89;37.85;93699.38;4917122;29;8421;-62
2023/07/01 13:11:58;;;;;;;;;;;;;;;29.88;38.58;93695.13;4917090;29;7243;-62
2023/07/01 13:14:42;;;;;;;;;;;;;;;29.87;37.25;93693.66;4936771;28;7328;-62
2023/07/01 13:17:12;;;;;;;;;;;;;;;29.89;37.73;93691.06;4929769;29;8822;-62
2023/07/01 13:20:10;;;;;;;;;;;;;;;29.90;37.28;93703.63;4932413;29;6992;-62
2023/07/01 13:22:50;;;;;;;;;;;;;;;29.90;37.26;93708.44;4915475;29;6996;-62
2023/07/01 13:25:27;;;;;;;;;;;;;;;29.90;38.18;93697.34;4935465;28;9051;-63
2023/07/01 13:27:54;;;;;;;;;;;;;;;29.91;38.30;93696.78;4926321;29;9056;-62
2023/07/01 13:30:47;;;;;;;;;;;;;;;29.90;37.25;93692.53;4925516;29;8112;-63
2023/07/01 13:33:24;;;;;;;;;;;;;;;29.92;38.30;93700.28;4923381;28;9121;-62
2023/07/01 13:35:55;;;;;;;;;;;;;;;29.93;37.43;93702.50;4971495;28;7134;-63
2023/07/01 13:38:27;;;;;;;;;;;;;;;29.93;37.94;93699.72;4964975;28;9295;-62
2023/07/01 13:41:02;;;;;;;;;;;;;;;29.97;37.33;93702.16;4966896;28;8888;-62
2023/07/01 13:43:33;;;;;;;;;;;;;;;29.97;36.70;93694.53;4986198;28;7633;-62
2023/07/01 13:46:21;;;;;;;;;;;;;;;29.96;37.65;93700.66;5048991;28;9243;-62
2023/07/01 13:48:58;;;;;;;;;;;;;;;29.96;37.61;93701.41;5044005;28;6986;-62
2023/07/01 13:51:32;;;;;;;;;;;;;;;29.96;37.04;93695.84;5026295;28;7264;-62
2023/07/01 13:53:58;;;;;;;;;;;;;;;29.96;37.42;93700.66;5031873;28;7244;-62
2023/07/01 13:56:51;;;;;;;;;;;;;;;29.99;36.95;93696.78;5049820;28;9087;-62
2023/07/01 13:59:27;;;;;;;;;;;;;;;30.00;37.57;93698.25;4987210;28;8169;-62
2023/07/01 14:02:10;;;;;;;;;;;;;;;29.99;37.31;93697.53;4988871;28;9073;-62
2023/07/01 14:04:40;;;;;;;;;;;;;;;30.00;36.77;93698.25;4965017;28;7268;-62